sensor_id;sensor_type;location;lat;lon;timestamp;pressure;altitude;pressure_sealevel;temperature;humidity
65614;BME280;52283;49.292;10.572;2023-02-13T00:02:03;98456.09;;;-0.98;100.00
65614;BME280;52283;49.292;10.572;2023-02-13T00:04:29;98449.44;;;-0.97;100.00
65614;BME280;52283;49.292;10.572;2023-02-13T00:06:56;98451.41;;;-0.94;100.00
65614;BME280;52283;49.292;10.572;2023-02-13T00:09:22;98441.66;;;-0.87;100.00
65614;BME280;52283;49.292;10.572;2023-02-13T00:11:50;98443.59;;;-0.92;100.00
65614;BME280;52283;49.292;10.572;2023-02-13T00:14:16;98437.69;;;-0.94;100.00
65614;BME280;52283;49.292;10.572;2023-02-13T00:16:43;98445.88;;;-1.01;100.00
65614;BME280;52283;49.292;10.572;2023-02-13T00:19:09;98441.81;;;-1.14;100.00
65614;BME280;52283;49.292;10.572;2023-02-13T00:21:36;98450.03;;;-1.14;100.00
65614;BME280;52283;49.292;10.572;2023-02-13T00:24:03;98443.06;;;-1.04;100.00
65614;BME280;52283;49.292;10.572;2023-02-13T00:26:29;98434.50;;;-0.99;100.00
65614;BME280;52283;49.292;10.572;2023-02-13T00:28:57;98453.38;;;-0.94;100.00
65614;BME280;52283;49.292;10.572;2023-02-13T00:31:24;98440.69;;;-1.09;100.00
65614;BME280;52283;49.292;10.572;2023-02-13T00:33:50;98444.97;;;-1.12;100.00
65614;BME280;52283;49.292;10.572;2023-02-13T00:36:18;98445.72;;;-1.15;100.00
65614;BME280;52283;49.292;10.572;2023-02-13T00:38:46;98450.91;;;-1.06;100.00
65614;BME280;52283;49.292;10.572;2023-02-13T00:41:13;98442.75;;;-0.99;100.00
65614;BME280;52283;49.292;10.572;2023-02-13T00:43:40;98435.31;;;-0.95;100.00
65614;BME280;52283;49.292;10.572;2023-02-13T00:46:08;98436.00;;;-1.05;100.00
65614;BME280;52283;49.292;10.572;2023-02-13T00:48:36;98437.56;;;-1.08;100.00
65614;BME280;52283;49.292;10.572;2023-02-13T00:51:03;98434.09;;;-1.01;100.00
65614;BME280;52283;49.292;10.572;2023-02-13T00:53:29;98443.13;;;-1.01;100.00
65614;BME280;52283;49.292;10.572;2023-02-13T00:55:56;98439.53;;;-1.05;100.00
65614;BME280;52283;49.292;10.572;2023-02-13T00:58:23;98440.72;;;-1.06;100.00
65614;BME280;52283;49.292;10.572;2023-02-13T01:00:50;98434.81;;;-1.08;100.00
65614;BME280;52283;49.292;10.572;2023-02-13T01:03:19;98437.63;;;-1.01;100.00
65614;BME280;52283;49.292;10.572;2023-02-13T01:05:46;98431.38;;;-0.98;100.00
65614;BME280;52283;49.292;10.572;2023-02-13T01:08:14;98436.06;;;-1.02;100.00
65614;BME280;52283;49.292;10.572;2023-02-13T01:10:41;98433.16;;;-1.19;100.00
65614;BME280;52283;49.292;10.572;2023-02-13T01:13:09;98433.94;;;-1.19;100.00
65614;BME280;52283;49.292;10.572;2023-02-13T01:15:36;98433.16;;;-1.19;100.00
65614;BME280;52283;49.292;10.572;2023-02-13T01:18:03;98434.75;;;-1.15;100.00
65614;BME280;52283;49.292;10.572;2023-02-13T01:20:31;98421.38;;;-1.20;100.00
65614;BME280;52283;49.292;10.572;2023-02-13T01:22:58;98419.81;;;-1.21;100.00
65614;BME280;52283;49.292;10.572;2023-02-13T01:25:24;98422.88;;;-1.26;100.00
65614;BME280;52283;49.292;10.572;2023-02-13T01:27:51;98419.69;;;-1.32;100.00
65614;BME280;52283;49.292;10.572;2023-02-13T01:30:18;98414.53;;;-1.40;100.00
65614;BME280;52283;49.292;10.572;2023-02-13T01:32:45;98424.38;;;-1.36;100.00
65614;BME280;52283;49.292;10.572;2023-02-13T01:35:13;98415.72;;;-1.38;100.00
65614;BME280;52283;49.292;10.572;2023-02-13T01:37:42;98418.16;;;-1.29;100.00
65614;BME280;52283;49.292;10.572;2023-02-13T01:40:11;98415.38;;;-1.33;100.00
65614;BME280;52283;49.292;10.572;2023-02-13T01:42:38;98417.88;;;-1.58;100.00
65614;BME280;52283;49.292;10.572;2023-02-13T01:45:12;98409.41;;;-1.45;100.00
65614;BME280;52283;49.292;10.572;2023-02-13T01:47:43;98413.66;;;-1.48;100.00
65614;BME280;52283;49.292;10.572;2023-02-13T01:50:13;98410.06;;;-1.89;100.00
65614;BME280;52283;49.292;10.572;2023-02-13T01:52:46;98417.28;;;-1.74;100.00
65614;BME280;52283;49.292;10.572;2023-02-13T01:55:14;98406.22;;;-1.85;100.00
65614;BME280;52283;49.292;10.572;2023-02-13T01:57:44;98399.34;;;-1.68;100.00
65614;BME280;52283;49.292;10.572;2023-02-13T02:00:14;98403.41;;;-1.55;100.00
65614;BME280;52283;49.292;10.572;2023-02-13T02:02:43;98401.03;;;-1.56;100.00
65614;BME280;52283;49.292;10.572;2023-02-13T02:05:11;98399.31;;;-1.71;100.00
65614;BME280;52283;49.292;10.572;2023-02-13T02:07:39;98409.84;;;-1.73;100.00
65614;BME280;52283;49.292;10.572;2023-02-13T02:10:15;98402.03;;;-1.71;100.00
65614;BME280;52283;49.292;10.572;2023-02-13T02:12:46;98402.84;;;-1.71;100.00
65614;BME280;52283;49.292;10.572;2023-02-13T02:15:15;98407.56;;;-1.68;100.00
65614;BME280;52283;49.292;10.572;2023-02-13T02:17:42;98403.66;;;-1.67;100.00
65614;BME280;52283;49.292;10.572;2023-02-13T02:20:19;98411.44;;;-1.72;100.00
65614;BME280;52283;49.292;10.572;2023-02-13T02:23:08;98405.97;;;-1.69;100.00
65614;BME280;52283;49.292;10.572;2023-02-13T02:26:00;98417.03;;;-1.62;100.00
65614;BME280;52283;49.292;10.572;2023-02-13T02:29:10;98415.78;;;-1.68;100.00
65614;BME280;52283;49.292;10.572;2023-02-13T02:32:06;98413.19;;;-1.57;100.00
65614;BME280;52283;49.292;10.572;2023-02-13T02:34:42;98422.50;;;-1.65;100.00
65614;BME280;52283;49.292;10.572;2023-02-13T02:37:22;98412.97;;;-1.75;100.00
65614;BME280;52283;49.292;10.572;2023-02-13T02:40:10;98413.41;;;-1.69;100.00
65614;BME280;52283;49.292;10.572;2023-02-13T02:42:43;98420.06;;;-1.70;100.00
65614;BME280;52283;49.292;10.572;2023-02-13T02:45:20;98415.94;;;-1.54;100.00
65614;BME280;52283;49.292;10.572;2023-02-13T02:47:55;98405.34;;;-1.55;100.00
65614;BME280;52283;49.292;10.572;2023-02-13T02:50:45;98409.72;;;-1.50;100.00
65614;BME280;52283;49.292;10.572;2023-02-13T02:53:28;98418.22;;;-1.63;100.00
65614;BME280;52283;49.292;10.572;2023-02-13T02:56:01;98411.25;;;-1.53;100.00
65614;BME280;52283;49.292;10.572;2023-02-13T02:58:36;98406.53;;;-1.56;100.00
65614;BME280;52283;49.292;10.572;2023-02-13T03:01:24;98410.44;;;-1.57;100.00
65614;BME280;52283;49.292;10.572;2023-02-13T03:04:17;98417.00;;;-1.65;100.00
65614;BME280;52283;49.292;10.572;2023-02-13T03:07:05;98412.53;;;-1.80;100.00
65614;BME280;52283;49.292;10.572;2023-02-13T03:09:35;98415.69;;;-1.78;100.00
65614;BME280;52283;49.292;10.572;2023-02-13T03:12:22;98414.22;;;-1.69;100.00
65614;BME280;52283;49.292;10.572;2023-02-13T03:15:08;98410.78;;;-1.62;100.00
65614;BME280;52283;49.292;10.572;2023-02-13T03:17:35;98416.16;;;-1.69;100.00
65614;BME280;52283;49.292;10.572;2023-02-13T03:20:30;98416.59;;;-2.01;100.00
65614;BME280;52283;49.292;10.572;2023-02-13T03:23:29;98426.44;;;-1.96;100.00
65614;BME280;52283;49.292;10.572;2023-02-13T03:26:09;98431.06;;;-2.00;100.00
65614;BME280;52283;49.292;10.572;2023-02-13T03:28:49;98433.56;;;-1.88;100.00
65614;BME280;52283;49.292;10.572;2023-02-13T03:31:43;98431.06;;;-2.00;100.00
65614;BME280;52283;49.292;10.572;2023-02-13T03:34:18;98423.41;;;-2.18;100.00
65614;BME280;52283;49.292;10.572;2023-02-13T03:36:49;98415.94;;;-2.21;100.00
65614;BME280;52283;49.292;10.572;2023-02-13T03:39:54;98424.03;;;-2.01;100.00
65614;BME280;52283;49.292;10.572;2023-02-13T03:42:27;98416.97;;;-2.02;100.00
65614;BME280;52283;49.292;10.572;2023-02-13T03:44:59;98421.13;;;-2.12;100.00
65614;BME280;52283;49.292;10.572;2023-02-13T03:47:46;98427.22;;;-1.96;100.00
65614;BME280;52283;49.292;10.572;2023-02-13T03:50:15;98428.81;;;-1.91;100.00
65614;BME280;52283;49.292;10.572;2023-02-13T03:52:49;98428.88;;;-1.88;100.00
65614;BME280;52283;49.292;10.572;2023-02-13T03:55:18;98423.72;;;-1.93;100.00
65614;BME280;52283;49.292;10.572;2023-02-13T03:58:07;98433.06;;;-1.97;100.00
65614;BME280;52283;49.292;10.572;2023-02-13T04:00:54;98424.88;;;-1.94;100.00
65614;BME280;52283;49.292;10.572;2023-02-13T04:03:26;98436.75;;;-1.86;100.00
65614;BME280;52283;49.292;10.572;2023-02-13T04:05:58;98430.41;;;-1.90;100.00
65614;BME280;52283;49.292;10.572;2023-02-13T04:08:29;98425.25;;;-1.95;100.00
65614;BME280;52283;49.292;10.572;2023-02-13T04:11:01;98430.78;;;-1.92;100.00
65614;BME280;52283;49.292;10.572;2023-02-13T04:13:33;98431.13;;;-1.97;100.00
65614;BME280;52283;49.292;10.572;2023-02-13T04:16:05;98437.31;;;-2.03;100.00
65614;BME280;52283;49.292;10.572;2023-02-13T04:18:35;98437.38;;;-1.96;100.00
65614;BME280;52283;49.292;10.572;2023-02-13T04:21:04;98433.44;;;-1.99;100.00
65614;BME280;52283;49.292;10.572;2023-02-13T04:23:32;98435.81;;;-1.97;100.00
65614;BME280;52283;49.292;10.572;2023-02-13T04:26:01;98436.97;;;-1.98;100.00
65614;BME280;52283;49.292;10.572;2023-02-13T04:28:28;98436.13;;;-2.02;100.00
65614;BME280;52283;49.292;10.572;2023-02-13T04:30:55;98431.34;;;-2.09;100.00
65614;BME280;52283;49.292;10.572;2023-02-13T04:33:22;98430.94;;;-2.11;100.00
65614;BME280;52283;49.292;10.572;2023-02-13T04:35:48;98438.69;;;-2.17;100.00
65614;BME280;52283;49.292;10.572;2023-02-13T04:38:14;98430.81;;;-2.22;100.00
65614;BME280;52283;49.292;10.572;2023-02-13T04:40:42;98426.53;;;-2.19;100.00
65614;BME280;52283;49.292;10.572;2023-02-13T04:43:09;98425.03;;;-2.13;100.00
65614;BME280;52283;49.292;10.572;2023-02-13T04:45:35;98430.94;;;-2.11;100.00
65614;BME280;52283;49.292;10.572;2023-02-13T04:48:02;98419.88;;;-2.18;100.00
65614;BME280;52283;49.292;10.572;2023-02-13T04:50:28;98418.88;;;-2.06;100.00
65614;BME280;52283;49.292;10.572;2023-02-13T04:52:55;98407.03;;;-2.14;100.00
65614;BME280;52283;49.292;10.572;2023-02-13T04:55:22;98415.94;;;-2.21;100.00
65614;BME280;52283;49.292;10.572;2023-02-13T04:57:52;98418.63;;;-2.24;100.00
65614;BME280;52283;49.292;10.572;2023-02-13T05:00:19;98423.88;;;-2.42;100.00
65614;BME280;52283;49.292;10.572;2023-02-13T05:02:46;98423.13;;;-2.39;100.00
65614;BME280;52283;49.292;10.572;2023-02-13T05:05:13;98432.50;;;-2.40;100.00
65614;BME280;52283;49.292;10.572;2023-02-13T05:07:40;98432.88;;;-2.41;100.00
65614;BME280;52283;49.292;10.572;2023-02-13T05:10:07;98433.97;;;-2.46;100.00
65614;BME280;52283;49.292;10.572;2023-02-13T05:12:34;98428.56;;;-2.42;100.00
65614;BME280;52283;49.292;10.572;2023-02-13T05:15:02;98433.75;;;-2.34;100.00
65614;BME280;52283;49.292;10.572;2023-02-13T05:17:29;98434.13;;;-2.35;100.00
65614;BME280;52283;49.292;10.572;2023-02-13T05:19:55;98432.13;;;-2.38;100.00
65614;BME280;52283;49.292;10.572;2023-02-13T05:22:23;98437.66;;;-2.35;100.00
65614;BME280;52283;49.292;10.572;2023-02-13T05:25:07;98444.69;;;-2.34;100.00
65614;BME280;52283;49.292;10.572;2023-02-13T05:27:34;98436.06;;;-2.36;100.00
65614;BME280;52283;49.292;10.572;2023-02-13T05:30:02;98446.44;;;-2.22;100.00
65614;BME280;52283;49.292;10.572;2023-02-13T05:32:28;98445.13;;;-2.32;100.00
65614;BME280;52283;49.292;10.572;2023-02-13T05:34:55;98443.47;;;-2.66;100.00
65614;BME280;52283;49.292;10.572;2023-02-13T05:37:21;98450.00;;;-2.48;100.00
65614;BME280;52283;49.292;10.572;2023-02-13T05:39:48;98450.03;;;-2.44;100.00
65614;BME280;52283;49.292;10.572;2023-02-13T05:42:14;98445.31;;;-2.48;100.00
65614;BME280;52283;49.292;10.572;2023-02-13T05:44:41;98454.50;;;-2.33;100.00
65614;BME280;52283;49.292;10.572;2023-02-13T05:47:08;98446.56;;;-2.41;100.00
65614;BME280;52283;49.292;10.572;2023-02-13T05:49:35;98443.81;;;-2.41;100.00
65614;BME280;52283;49.292;10.572;2023-02-13T05:52:01;98456.69;;;-2.46;100.00
65614;BME280;52283;49.292;10.572;2023-02-13T05:54:28;98453.03;;;-2.53;100.00
65614;BME280;52283;49.292;10.572;2023-02-13T05:56:54;98456.50;;;-2.56;100.00
65614;BME280;52283;49.292;10.572;2023-02-13T05:59:21;98458.03;;;-2.59;100.00
65614;BME280;52283;49.292;10.572;2023-02-13T06:01:47;98458.22;;;-2.48;100.00
65614;BME280;52283;49.292;10.572;2023-02-13T06:04:15;98461.78;;;-2.44;100.00
65614;BME280;52283;49.292;10.572;2023-02-13T06:06:42;98465.34;;;-2.40;100.00
65614;BME280;52283;49.292;10.572;2023-02-13T06:09:09;98465.69;;;-2.45;100.00
65614;BME280;52283;49.292;10.572;2023-02-13T06:11:36;98461.31;;;-2.50;100.00
65614;BME280;52283;49.292;10.572;2023-02-13T06:14:02;98464.88;;;-2.46;100.00
65614;BME280;52283;49.292;10.572;2023-02-13T06:16:29;98461.66;;;-2.51;100.00
65614;BME280;52283;49.292;10.572;2023-02-13T06:18:56;98468.94;;;-2.62;100.00
65614;BME280;52283;49.292;10.572;2023-02-13T06:21:24;98465.97;;;-2.50;100.00
65614;BME280;52283;49.292;10.572;2023-02-13T06:23:50;98465.31;;;-2.43;100.00
65614;BME280;52283;49.292;10.572;2023-02-13T06:26:17;98472.38;;;-2.42;100.00
65614;BME280;52283;49.292;10.572;2023-02-13T06:28:44;98472.81;;;-2.37;100.00
65614;BME280;52283;49.292;10.572;2023-02-13T06:31:10;98485.22;;;-2.47;100.00
65614;BME280;52283;49.292;10.572;2023-02-13T06:33:36;98478.56;;;-2.46;100.00
65614;BME280;52283;49.292;10.572;2023-02-13T06:36:03;98477.63;;;-2.30;100.00
65614;BME280;52283;49.292;10.572;2023-02-13T06:38:31;98487.53;;;-2.49;100.00
65614;BME280;52283;49.292;10.572;2023-02-13T06:40:59;98488.25;;;-2.52;100.00
65614;BME280;52283;49.292;10.572;2023-02-13T06:43:26;98485.31;;;-2.39;100.00
65614;BME280;52283;49.292;10.572;2023-02-13T06:45:52;98496.22;;;-2.43;100.00
65614;BME280;52283;49.292;10.572;2023-02-13T06:48:19;98498.59;;;-2.41;100.00
65614;BME280;52283;49.292;10.572;2023-02-13T06:50:45;98496.72;;;-2.34;100.00
65614;BME280;52283;49.292;10.572;2023-02-13T06:53:12;98501.84;;;-2.32;100.00
65614;BME280;52283;49.292;10.572;2023-02-13T06:55:40;98486.53;;;-2.37;100.00
65614;BME280;52283;49.292;10.572;2023-02-13T06:58:06;98503.50;;;-2.28;100.00
65614;BME280;52283;49.292;10.572;2023-02-13T07:00:33;98504.91;;;-2.37;100.00
65614;BME280;52283;49.292;10.572;2023-02-13T07:03:03;98498.25;;;-2.63;100.00
65614;BME280;52283;49.292;10.572;2023-02-13T07:05:29;98492.75;;;-2.89;100.00
65614;BME280;52283;49.292;10.572;2023-02-13T07:07:56;98487.81;;;-3.03;100.00
65614;BME280;52283;49.292;10.572;2023-02-13T07:10:23;98497.47;;;-2.63;100.00
65614;BME280;52283;49.292;10.572;2023-02-13T07:12:51;98494.63;;;-2.70;100.00
65614;BME280;52283;49.292;10.572;2023-02-13T07:15:21;98491.75;;;-2.28;100.00
65614;BME280;52283;49.292;10.572;2023-02-13T07:17:47;98498.94;;;-2.17;100.00
65614;BME280;52283;49.292;10.572;2023-02-13T07:20:14;98494.50;;;-2.28;100.00
65614;BME280;52283;49.292;10.572;2023-02-13T07:22:40;98502.53;;;-2.39;100.00
65614;BME280;52283;49.292;10.572;2023-02-13T07:25:07;98501.91;;;-2.29;100.00
65614;BME280;52283;49.292;10.572;2023-02-13T07:27:33;98500.44;;;-2.23;100.00
65614;BME280;52283;49.292;10.572;2023-02-13T07:30:02;98499.31;;;-2.18;100.00
65614;BME280;52283;49.292;10.572;2023-02-13T07:32:28;98493.84;;;-2.18;100.00
65614;BME280;52283;49.292;10.572;2023-02-13T07:34:55;98504.84;;;-2.15;100.00
65614;BME280;52283;49.292;10.572;2023-02-13T07:37:21;98499.25;;;-1.95;100.00
65614;BME280;52283;49.292;10.572;2023-02-13T07:39:48;98500.78;;;-1.98;100.00
65614;BME280;52283;49.292;10.572;2023-02-13T07:42:14;98503.16;;;-2.23;100.00
65614;BME280;52283;49.292;10.572;2023-02-13T07:44:41;98499.69;;;-2.20;100.00
65614;BME280;52283;49.292;10.572;2023-02-13T07:47:09;98506.53;;;-2.33;100.00
65614;BME280;52283;49.292;10.572;2023-02-13T07:49:35;98508.41;;;-2.10;100.00
65614;BME280;52283;49.292;10.572;2023-02-13T07:52:02;98506.53;;;-2.06;100.00
65614;BME280;52283;49.292;10.572;2023-02-13T07:54:29;98504.69;;;-2.25;100.00
65614;BME280;52283;49.292;10.572;2023-02-13T07:56:56;98508.22;;;-1.98;100.00
65614;BME280;52283;49.292;10.572;2023-02-13T07:59:22;98509.25;;;-1.80;100.00
65614;BME280;52283;49.292;10.572;2023-02-13T08:01:49;98505.41;;;-1.72;100.00
65614;BME280;52283;49.292;10.572;2023-02-13T08:04:16;98502.88;;;-1.58;100.00
65614;BME280;52283;49.292;10.572;2023-02-13T08:06:43;98509.22;;;-1.50;100.00
65614;BME280;52283;49.292;10.572;2023-02-13T08:09:17;98512.09;;;-1.39;100.00
65614;BME280;52283;49.292;10.572;2023-02-13T08:12:02;98504.91;;;-1.51;100.00
65614;BME280;52283;49.292;10.572;2023-02-13T08:14:29;98511.13;;;-1.54;100.00
65614;BME280;52283;49.292;10.572;2023-02-13T08:16:57;98509.94;;;-1.57;100.00
65614;BME280;52283;49.292;10.572;2023-02-13T08:19:25;98508.28;;;-1.65;100.00
65614;BME280;52283;49.292;10.572;2023-02-13T08:21:51;98514.16;;;-1.63;100.00
65614;BME280;52283;49.292;10.572;2023-02-13T08:24:18;98515.06;;;-1.51;100.00
65614;BME280;52283;49.292;10.572;2023-02-13T08:26:44;98511.69;;;-1.41;100.00
65614;BME280;52283;49.292;10.572;2023-02-13T08:29:11;98521.22;;;-1.28;100.00
65614;BME280;52283;49.292;10.572;2023-02-13T08:31:37;98511.59;;;-1.11;100.00
65614;BME280;52283;49.292;10.572;2023-02-13T08:34:04;98511.38;;;-0.96;100.00
65614;BME280;52283;49.292;10.572;2023-02-13T08:36:32;98508.56;;;-1.03;100.00
65614;BME280;52283;49.292;10.572;2023-02-13T08:38:58;98510.16;;;-1.02;100.00
65614;BME280;52283;49.292;10.572;2023-02-13T08:41:24;98509.03;;;-0.94;100.00
65614;BME280;52283;49.292;10.572;2023-02-13T08:43:52;98516.91;;;-0.92;100.00
65614;BME280;52283;49.292;10.572;2023-02-13T08:46:19;98522.16;;;-0.76;100.00
65614;BME280;52283;49.292;10.572;2023-02-13T08:48:45;98515.97;;;-0.66;100.00
65614;BME280;52283;49.292;10.572;2023-02-13T08:51:13;98504.94;;;-0.73;100.00
65614;BME280;52283;49.292;10.572;2023-02-13T08:53:41;98511.00;;;-0.50;100.00
65614;BME280;52283;49.292;10.572;2023-02-13T08:56:08;98510.38;;;-0.29;100.00
65614;BME280;52283;49.292;10.572;2023-02-13T08:58:35;98508.13;;;-0.16;100.00
65614;BME280;52283;49.292;10.572;2023-02-13T09:01:04;98505.44;;;-0.06;100.00
65614;BME280;52283;49.292;10.572;2023-02-13T09:03:31;98504.84;;;0.29;100.00
65614;BME280;52283;49.292;10.572;2023-02-13T09:05:58;98502.13;;;0.33;100.00
65614;BME280;52283;49.292;10.572;2023-02-13T09:08:25;98503.75;;;0.48;100.00
65614;BME280;52283;49.292;10.572;2023-02-13T09:10:57;98505.56;;;0.19;100.00
65614;BME280;52283;49.292;10.572;2023-02-13T09:13:24;98499.81;;;0.42;100.00
65614;BME280;52283;49.292;10.572;2023-02-13T09:15:51;98500.91;;;0.27;100.00
65614;BME280;52283;49.292;10.572;2023-02-13T09:18:18;98506.44;;;0.30;100.00
65614;BME280;52283;49.292;10.572;2023-02-13T09:20:45;98509.00;;;0.85;100.00
65614;BME280;52283;49.292;10.572;2023-02-13T09:23:11;98511.75;;;0.93;100.00
65614;BME280;52283;49.292;10.572;2023-02-13T09:25:38;98514.91;;;0.98;100.00
65614;BME280;52283;49.292;10.572;2023-02-13T09:28:05;98515.34;;;1.11;100.00
65614;BME280;52283;49.292;10.572;2023-02-13T09:30:32;98518.50;;;1.16;100.00
65614;BME280;52283;49.292;10.572;2023-02-13T09:32:58;98515.78;;;1.31;100.00
65614;BME280;52283;49.292;10.572;2023-02-13T09:35:25;98515.38;;;1.29;100.00
65614;BME280;52283;49.292;10.572;2023-02-13T09:37:53;98515.00;;;1.51;100.00
65614;BME280;52283;49.292;10.572;2023-02-13T09:40:23;98515.38;;;1.57;100.00
65614;BME280;52283;49.292;10.572;2023-02-13T09:42:51;98517.75;;;1.51;100.00
65614;BME280;52283;49.292;10.572;2023-02-13T09:45:20;98522.47;;;1.79;100.00
65614;BME280;52283;49.292;10.572;2023-02-13T09:47:47;98516.50;;;2.06;100.00
65614;BME280;52283;49.292;10.572;2023-02-13T09:50:18;98517.31;;;2.10;100.00
65614;BME280;52283;49.292;10.572;2023-02-13T09:52:49;98511.78;;;2.17;100.00
65614;BME280;52283;49.292;10.572;2023-02-13T09:55:18;98508.59;;;2.22;100.00
65614;BME280;52283;49.292;10.572;2023-02-13T09:57:50;98517.66;;;2.30;100.00
65614;BME280;52283;49.292;10.572;2023-02-13T10:00:21;98513.28;;;2.39;100.00
65614;BME280;52283;49.292;10.572;2023-02-13T10:03:14;98516.38;;;2.59;100.00
65614;BME280;52283;49.292;10.572;2023-02-13T10:05:48;98512.78;;;2.73;100.00
65614;BME280;52283;49.292;10.572;2023-02-13T10:08:29;98505.97;;;2.88;100.00
65614;BME280;52283;49.292;10.572;2023-02-13T10:11:03;98506.72;;;2.99;100.00
65614;BME280;52283;49.292;10.572;2023-02-13T10:13:54;98512.75;;;2.77;100.00
65614;BME280;52283;49.292;10.572;2023-02-13T10:16:27;98511.31;;;3.24;100.00
65614;BME280;52283;49.292;10.572;2023-02-13T10:18:58;98513.00;;;3.03;100.00
65614;BME280;52283;49.292;10.572;2023-02-13T10:21:29;98506.38;;;2.94;100.00
65614;BME280;52283;49.292;10.572;2023-02-13T10:24:01;98504.50;;;2.73;100.00
65614;BME280;52283;49.292;10.572;2023-02-13T10:26:31;98499.16;;;3.14;100.00
65614;BME280;52283;49.292;10.572;2023-02-13T10:29:12;98511.25;;;3.31;100.00
65614;BME280;52283;49.292;10.572;2023-02-13T10:32:02;98510.31;;;3.55;100.00
65614;BME280;52283;49.292;10.572;2023-02-13T10:34:33;98521.66;;;3.64;100.00
65614;BME280;52283;49.292;10.572;2023-02-13T10:37:01;98511.63;;;3.85;100.00
65614;BME280;52283;49.292;10.572;2023-02-13T10:39:29;98511.59;;;3.88;100.00
65614;BME280;52283;49.292;10.572;2023-02-13T10:42:04;98513.00;;;4.07;100.00
65614;BME280;52283;49.292;10.572;2023-02-13T10:44:47;98509.53;;;4.00;100.00
65614;BME280;52283;49.292;10.572;2023-02-13T10:47:28;98511.00;;;4.08;100.00
65614;BME280;52283;49.292;10.572;2023-02-13T10:50:05;98516.22;;;4.02;100.00
65614;BME280;52283;49.292;10.572;2023-02-13T10:52:45;98507.38;;;4.18;100.00
65614;BME280;52283;49.292;10.572;2023-02-13T10:55:34;98514.81;;;3.83;100.00
65614;BME280;52283;49.292;10.572;2023-02-13T10:58:08;98503.03;;;4.17;100.00
65614;BME280;52283;49.292;10.572;2023-02-13T11:00:42;98500.41;;;4.37;100.00
65614;BME280;52283;49.292;10.572;2023-02-13T11:03:19;98492.94;;;4.34;100.00
65614;BME280;52283;49.292;10.572;2023-02-13T11:05:47;98493.88;;;4.23;100.00
65614;BME280;52283;49.292;10.572;2023-02-13T11:08:17;98500.44;;;3.99;100.00
65614;BME280;52283;49.292;10.572;2023-02-13T11:10:45;98504.13;;;4.61;100.00
65614;BME280;52283;49.292;10.572;2023-02-13T11:13:17;98499.91;;;4.49;100.00
65614;BME280;52283;49.292;10.572;2023-02-13T11:15:57;98496.84;;;4.40;100.00
65614;BME280;52283;49.292;10.572;2023-02-13T11:18:26;98491.63;;;4.45;100.00
65614;BME280;52283;49.292;10.572;2023-02-13T11:21:02;98486.09;;;4.45;100.00
65614;BME280;52283;49.292;10.572;2023-02-13T11:23:43;98492.41;;;4.80;100.00
65614;BME280;52283;49.292;10.572;2023-02-13T11:26:12;98481.13;;;4.94;100.00
65614;BME280;52283;49.292;10.572;2023-02-13T11:28:47;98484.97;;;4.73;100.00
65614;BME280;52283;49.292;10.572;2023-02-13T11:31:21;98485.44;;;4.68;100.00
65614;BME280;52283;49.292;10.572;2023-02-13T11:33:49;98486.66;;;4.94;100.00
65614;BME280;52283;49.292;10.572;2023-02-13T11:36:23;98494.09;;;5.55;100.00
65614;BME280;52283;49.292;10.572;2023-02-13T11:38:56;98486.78;;;5.14;100.00
65614;BME280;52283;49.292;10.572;2023-02-13T11:41:25;98489.75;;;5.00;100.00
65614;BME280;52283;49.292;10.572;2023-02-13T11:43:54;98473.25;;;5.93;100.00
65614;BME280;52283;49.292;10.572;2023-02-13T11:46:27;98477.22;;;6.75;100.00
65614;BME280;52283;49.292;10.572;2023-02-13T11:49:00;98470.28;;;7.03;100.00
65614;BME280;52283;49.292;10.572;2023-02-13T11:51:38;98473.16;;;6.40;100.00
65614;BME280;52283;49.292;10.572;2023-02-13T11:54:06;98465.31;;;6.15;100.00
65614;BME280;52283;49.292;10.572;2023-02-13T11:56:47;98464.84;;;6.60;100.00
65614;BME280;52283;49.292;10.572;2023-02-13T11:59:14;98463.50;;;5.81;100.00
65614;BME280;52283;49.292;10.572;2023-02-13T12:01:40;98472.19;;;6.50;100.00
65614;BME280;52283;49.292;10.572;2023-02-13T12:04:14;98460.00;;;7.00;100.00
65614;BME280;52283;49.292;10.572;2023-02-13T12:06:57;98467.78;;;6.33;100.00
65614;BME280;52283;49.292;10.572;2023-02-13T12:09:24;98476.41;;;5.95;100.00
65614;BME280;52283;49.292;10.572;2023-02-13T12:11:55;98473.81;;;5.81;100.00
65614;BME280;52283;49.292;10.572;2023-02-13T12:14:25;98479.09;;;5.75;100.00
65614;BME280;52283;49.292;10.572;2023-02-13T12:16:55;98475.25;;;5.93;100.00
65614;BME280;52283;49.292;10.572;2023-02-13T12:19:32;98465.13;;;6.65;100.00
65614;BME280;52283;49.292;10.572;2023-02-13T12:22:10;98456.41;;;7.19;100.00
65614;BME280;52283;49.292;10.572;2023-02-13T12:24:49;98457.63;;;8.00;100.00
65614;BME280;52283;49.292;10.572;2023-02-13T12:27:26;98460.16;;;7.29;100.00
65614;BME280;52283;49.292;10.572;2023-02-13T12:30:12;98449.19;;;7.87;100.00
65614;BME280;52283;49.292;10.572;2023-02-13T12:32:47;98442.78;;;8.19;100.00
65614;BME280;52283;49.292;10.572;2023-02-13T12:35:34;98433.25;;;8.62;100.00
65614;BME280;52283;49.292;10.572;2023-02-13T12:38:13;98442.22;;;8.24;100.00
65614;BME280;52283;49.292;10.572;2023-02-13T12:41:12;98444.84;;;7.21;100.00
65614;BME280;52283;49.292;10.572;2023-02-13T12:44:10;98439.47;;;7.79;100.00
65614;BME280;52283;49.292;10.572;2023-02-13T12:46:49;98447.75;;;6.97;100.00
65614;BME280;52283;49.292;10.572;2023-02-13T12:49:41;98440.84;;;7.22;100.00
65614;BME280;52283;49.292;10.572;2023-02-13T12:52:25;98439.06;;;6.59;100.00
65614;BME280;52283;49.292;10.572;2023-02-13T12:55:03;98437.13;;;7.12;100.00
65614;BME280;52283;49.292;10.572;2023-02-13T12:57:47;98424.75;;;6.97;100.00
65614;BME280;52283;49.292;10.572;2023-02-13T13:00:27;98427.00;;;6.66;100.00
65614;BME280;52283;49.292;10.572;2023-02-13T13:03:08;98423.97;;;6.96;100.00
65614;BME280;52283;49.292;10.572;2023-02-13T13:05:51;98430.59;;;6.07;100.00